Time;durP1;ratioP1;P1;durP2;ratioP2;P2;SDS_P1;SDS_P2;PMS_P1;PMS_P2;Temp;Humidity;BMP_temperature;BMP_pressure;BME280_temperature;BME280_humidity;BME280_pressure;Samples;Min_cycle;Max_cycle;Signal;HPM_P1;HPM_P2
2022/05/04 00:01:51;;;;;;;;;;;19.00;60.20;;;;;;5059991;28;1290;-74
2022/05/04 00:04:17;;;;;;;;;;;19.00;60.20;;;;;;5060613;28;1948;-73
2022/05/04 00:06:42;;;;;;;;;;;19.00;60.20;;;;;;5043875;28;1331;-73
2022/05/04 00:09:07;;;;;;;;;;;19.00;60.30;;;;;;5062286;28;1317;-72
2022/05/04 00:11:33;;;;;;;;;;;19.00;60.30;;;;;;5059698;28;1233;-75
2022/05/04 00:13:58;;;;;;;;;;;19.00;60.30;;;;;;5062767;28;1875;-74
2022/05/04 00:16:24;;;;;;;;;;;19.00;60.30;;;;;;5062747;28;1223;-73
2022/05/04 00:18:49;;;;;;;;;;;19.00;60.80;;;;;;5060801;28;1138;-74
2022/05/04 00:21:15;;;;;;;;;;;19.00;60.40;;;;;;5060524;28;1361;-73
2022/05/04 00:23:40;;;;;;;;;;;19.00;60.40;;;;;;5061202;28;1960;-71
2022/05/04 00:26:05;;;;;;;;;;;19.00;60.40;;;;;;5062608;28;1521;-72
2022/05/04 00:28:31;;;;;;;;;;;19.00;60.50;;;;;;5059903;28;1199;-71
2022/05/04 00:30:56;;;;;;;;;;;19.00;60.50;;;;;;5061588;28;1223;-74
2022/05/04 00:33:22;;;;;;;;;;;19.00;60.50;;;;;;5061092;28;1259;-74
2022/05/04 00:35:47;;;;;;;;;;;19.00;60.50;;;;;;5059131;28;1299;-74
2022/05/04 00:38:13;;;;;;;;;;;19.00;60.50;;;;;;5061895;28;1219;-72
2022/05/04 00:40:38;;;;;;;;;;;19.00;60.50;;;;;;5060214;28;1180;-73
2022/05/04 00:43:03;;;;;;;;;;;19.00;60.60;;;;;;5058598;28;1890;-74
2022/05/04 00:45:29;;;;;;;;;;;19.00;60.60;;;;;;5062532;28;1187;-73
2022/05/04 00:47:54;;;;;;;;;;;19.00;60.70;;;;;;5061319;28;1195;-72
2022/05/04 00:50:20;;;;;;;;;;;19.00;60.70;;;;;;5060854;28;1211;-71
2022/05/04 00:52:46;;;;;;;;;;;19.00;60.70;;;;;;5061062;28;1766;-71
2022/05/04 00:55:11;;;;;;;;;;;18.90;60.60;;;;;;5059483;28;1283;-73
2022/05/04 01:00:22;;;;;;;;;;;19.00;60.70;;;;;;5062124;28;1140;-72
2022/05/04 01:02:48;;;;;;;;;;;19.00;60.70;;;;;;5041948;28;1961;-71
2022/05/04 01:05:13;;;;;;;;;;;18.90;60.80;;;;;;5060298;28;1266;-70
2022/05/04 01:07:39;;;;;;;;;;;19.00;60.80;;;;;;5060563;28;1291;-71
2022/05/04 01:10:05;;;;;;;;;;;18.90;60.80;;;;;;5060642;28;1232;-72
2022/05/04 01:12:31;;;;;;;;;;;18.90;60.70;;;;;;5074802;22;1939;-71
2022/05/04 01:14:57;;;;;;;;;;;18.90;60.80;;;;;;5040143;28;1359;-70
2022/05/04 01:17:22;;;;;;;;;;;18.90;60.80;;;;;;5051850;28;1001;-71
2022/05/04 01:19:48;;;;;;;;;;;18.90;60.80;;;;;;5052098;28;929;-72
2022/05/04 01:22:13;;;;;;;;;;;18.90;60.80;;;;;;5051178;28;1255;-71
2022/05/04 01:24:39;;;;;;;;;;;18.90;60.80;;;;;;5040248;28;1913;-70
2022/05/04 01:27:07;;;;;;;;;;;18.90;60.90;;;;;;5038571;28;1184;-71
2022/05/04 01:29:33;;;;;;;;;;;18.90;60.90;;;;;;5035798;28;1252;-71
2022/05/04 01:31:58;;;;;;;;;;;18.90;60.90;;;;;;5039598;28;1418;-71
2022/05/04 01:34:27;;;;;;;;;;;18.90;60.90;;;;;;5039658;28;1185;-72
2022/05/04 01:36:53;;;;;;;;;;;18.90;60.90;;;;;;5037256;28;1078;-71
2022/05/04 01:39:18;;;;;;;;;;;18.90;60.90;;;;;;5040191;28;1259;-70
2022/05/04 01:44:39;;;;;;;;;;;18.90;61.00;;;;;;5027920;28;1902;-70
2022/05/04 01:47:05;;;;;;;;;;;18.90;61.00;;;;;;5039849;28;1279;-71
2022/05/04 01:49:30;;;;;;;;;;;18.90;61.00;;;;;;5039121;28;1207;-70
2022/05/04 01:51:55;;;;;;;;;;;18.90;61.00;;;;;;5041533;28;1247;-69
2022/05/04 01:54:21;;;;;;;;;;;18.90;61.00;;;;;;5043071;28;1288;-69
2022/05/04 01:56:46;;;;;;;;;;;18.90;61.10;;;;;;5042099;28;1371;-69
2022/05/04 01:59:12;;;;;;;;;;;18.90;61.00;;;;;;5043261;28;1271;-69
2022/05/04 02:01:38;;;;;;;;;;;18.90;61.10;;;;;;5040076;28;1256;-71
2022/05/04 02:04:03;;;;;;;;;;;18.90;61.10;;;;;;5034112;28;1898;-71
2022/05/04 02:06:29;;;;;;;;;;;18.90;61.10;;;;;;5017740;28;1157;-70
2022/05/04 02:08:55;;;;;;;;;;;18.90;61.10;;;;;;5033302;28;1171;-69
2022/05/04 02:11:21;;;;;;;;;;;18.90;61.10;;;;;;5034031;28;707;-69
2022/05/04 02:13:46;;;;;;;;;;;18.90;61.10;;;;;;5033698;28;1185;-69
2022/05/04 02:16:12;;;;;;;;;;;18.90;61.20;;;;;;5033964;28;764;-70
2022/05/04 02:18:37;;;;;;;;;;;18.90;61.20;;;;;;5033090;28;910;-71
2022/05/04 02:21:02;;;;;;;;;;;18.90;61.20;;;;;;5034926;28;871;-70
2022/05/04 02:23:28;;;;;;;;;;;18.90;61.20;;;;;;5017706;28;1948;-70
2022/05/04 02:25:53;;;;;;;;;;;18.90;61.20;;;;;;5026937;28;1689;-71
2022/05/04 02:28:19;;;;;;;;;;;18.90;61.30;;;;;;5043478;28;1252;-71
2022/05/04 02:30:44;;;;;;;;;;;18.90;61.20;;;;;;5042895;28;1274;-70
2022/05/04 02:33:10;;;;;;;;;;;18.90;61.30;;;;;;5043653;28;1299;-70
2022/05/04 02:38:21;;;;;;;;;;;18.90;61.30;;;;;;5040056;28;1094;-71
2022/05/04 02:40:47;;;;;;;;;;;18.90;61.30;;;;;;5043506;28;1338;-70
2022/05/04 02:43:12;;;;;;;;;;;18.90;61.30;;;;;;5042752;28;1898;-71
2022/05/04 02:45:38;;;;;;;;;;;18.90;61.30;;;;;;5034614;28;1188;-71
2022/05/04 02:48:03;;;;;;;;;;;18.90;61.30;;;;;;5035119;28;831;-71
2022/05/04 02:50:29;;;;;;;;;;;18.80;61.30;;;;;;5033002;28;1148;-70
2022/05/04 02:52:54;;;;;;;;;;;18.90;61.40;;;;;;5033067;28;1276;-69
2022/05/04 02:55:20;;;;;;;;;;;18.90;61.40;;;;;;5033435;28;998;-71
2022/05/04 02:57:45;;;;;;;;;;;18.90;61.40;;;;;;5034014;28;776;-69
2022/05/04 03:00:11;;;;;;;;;;;18.90;61.40;;;;;;5034060;28;942;-69
2022/05/04 03:02:36;;;;;;;;;;;18.90;61.40;;;;;;5034528;28;1209;-69
2022/05/04 03:05:02;;;;;;;;;;;18.90;61.40;;;;;;5032631;28;1952;-68
2022/05/04 03:07:28;;;;;;;;;;;18.90;61.40;;;;;;5033485;28;1153;-69
2022/05/04 03:09:57;;;;;;;;;;;18.90;61.40;;;;;;5032868;28;1207;-69
2022/05/04 03:12:22;;;;;;;;;;;18.90;61.40;;;;;;5033969;28;1217;-72
2022/05/04 03:14:47;;;;;;;;;;;18.90;61.50;;;;;;5032838;28;1057;-71
2022/05/04 03:17:13;;;;;;;;;;;18.90;61.50;;;;;;5032402;28;902;-71
2022/05/04 03:19:38;;;;;;;;;;;18.90;61.50;;;;;;5032937;28;815;-72
2022/05/04 03:22:04;;;;;;;;;;;18.90;61.50;;;;;;5033844;28;1281;-70
2022/05/04 03:24:30;;;;;;;;;;;18.90;61.50;;;;;;5033878;28;1902;-70
2022/05/04 03:26:55;;;;;;;;;;;18.90;61.50;;;;;;5033841;28;803;-73
2022/05/04 03:29:21;;;;;;;;;;;18.90;61.60;;;;;;5033400;28;927;-73
2022/05/04 03:31:46;;;;;;;;;;;18.90;61.50;;;;;;5032442;28;1216;-73
2022/05/04 03:34:12;;;;;;;;;;;18.90;61.60;;;;;;5016058;28;1145;-72
2022/05/04 03:36:37;;;;;;;;;;;18.90;61.60;;;;;;5033551;28;1119;-71
2022/05/04 03:39:03;;;;;;;;;;;18.80;61.60;;;;;;5033423;28;843;-70
2022/05/04 03:41:28;;;;;;;;;;;18.90;62.40;;;;;;5032342;28;1192;-70
2022/05/04 03:43:54;;;;;;;;;;;18.90;61.60;;;;;;5032432;28;1946;-71
2022/05/04 03:46:20;;;;;;;;;;;18.80;61.60;;;;;;5032262;28;842;-71
2022/05/04 03:48:46;;;;;;;;;;;18.90;61.70;;;;;;5015527;28;1362;-71
2022/05/04 03:51:13;;;;;;;;;;;18.90;61.70;;;;;;5032176;28;1274;-71
2022/05/04 03:53:39;;;;;;;;;;;18.80;61.70;;;;;;5032299;28;1264;-71
2022/05/04 03:56:04;;;;;;;;;;;18.90;61.70;;;;;;5025233;28;2445;-69
2022/05/04 03:58:30;;;;;;;;;;;18.80;61.70;;;;;;5044688;28;1136;-69
2022/05/04 04:00:55;;;;;;;;;;;18.80;61.70;;;;;;5032998;28;1177;-69
2022/05/04 04:03:20;;;;;;;;;;;18.80;61.70;;;;;;5033057;28;1894;-71
2022/05/04 04:05:46;;;;;;;;;;;18.80;61.70;;;;;;5033498;28;700;-71
2022/05/04 04:08:11;;;;;;;;;;;18.80;61.70;;;;;;5032676;28;1152;-71
2022/05/04 04:10:37;;;;;;;;;;;18.80;61.70;;;;;;5032024;28;797;-71
2022/05/04 04:13:02;;;;;;;;;;;18.80;61.70;;;;;;5015320;28;1690;-71
2022/05/04 04:15:28;;;;;;;;;;;18.80;61.80;;;;;;5030924;28;624;-71
2022/05/04 04:17:54;;;;;;;;;;;18.80;61.70;;;;;;5031599;28;800;-71
2022/05/04 04:23:03;;;;;;;;;;;18.80;61.80;;;;;;5032896;28;1914;-71
2022/05/04 04:25:29;;;;;;;;;;;18.80;61.80;;;;;;5031529;28;815;-71
2022/05/04 04:27:54;;;;;;;;;;;18.80;61.80;;;;;;5032384;28;815;-71
2022/05/04 04:30:19;;;;;;;;;;;18.80;61.80;;;;;;5031394;28;824;-73
2022/05/04 04:32:45;;;;;;;;;;;18.80;61.80;;;;;;5031535;28;1221;-71
2022/05/04 04:35:10;;;;;;;;;;;18.80;61.80;;;;;;5032690;28;871;-74
2022/05/04 04:37:36;;;;;;;;;;;18.80;61.90;;;;;;5030924;28;1109;-74
2022/05/04 04:40:01;;;;;;;;;;;18.80;61.80;;;;;;5032640;28;907;-74
2022/05/04 04:42:26;;;;;;;;;;;18.80;62.60;;;;;;5032577;28;1315;-73
2022/05/04 04:44:52;;;;;;;;;;;18.80;61.90;;;;;;5031528;28;1950;-73
2022/05/04 04:47:17;;;;;;;;;;;18.80;61.90;;;;;;5031072;28;867;-74
2022/05/04 04:49:43;;;;;;;;;;;18.80;61.80;;;;;;5032428;28;906;-74
2022/05/04 04:52:08;;;;;;;;;;;18.80;61.60;;;;;;5032458;28;1284;-73
2022/05/04 04:54:34;;;;;;;;;;;18.80;61.10;;;;;;5032654;28;894;-73
2022/05/04 04:56:59;;;;;;;;;;;18.80;60.70;;;;;;5017465;28;1653;-74
2022/05/04 04:59:24;;;;;;;;;;;18.80;60.20;;;;;;5030031;28;910;-74
2022/05/04 05:01:50;;;;;;;;;;;18.80;60.00;;;;;;5031529;28;1276;-72
2022/05/04 05:04:15;;;;;;;;;;;18.80;59.80;;;;;;5028752;28;1947;-72
2022/05/04 05:06:41;;;;;;;;;;;18.80;59.70;;;;;;5032658;28;1002;-71
2022/05/04 05:09:06;;;;;;;;;;;18.80;59.70;;;;;;5030762;28;1195;-71
2022/05/04 05:11:31;;;;;;;;;;;18.80;59.50;;;;;;5031775;28;1208;-69
2022/05/04 05:16:41;;;;;;;;;;;18.80;59.20;;;;;;5034206;28;618;-72
2022/05/04 05:19:07;;;;;;;;;;;18.80;59.20;;;;;;5016037;28;1223;-75
2022/05/04 05:21:32;;;;;;;;;;;18.70;59.10;;;;;;5016418;28;1257;-74
2022/05/04 05:23:58;;;;;;;;;;;18.70;59.00;;;;;;5014866;28;1902;-72
2022/05/04 05:26:23;;;;;;;;;;;18.70;58.90;;;;;;5014049;28;915;-72
2022/05/04 05:28:48;;;;;;;;;;;18.70;59.20;;;;;;5034310;28;917;-72
2022/05/04 05:31:14;;;;;;;;;;;18.70;59.00;;;;;;5036243;28;969;-74
2022/05/04 05:33:39;;;;;;;;;;;18.70;58.60;;;;;;5036394;28;1309;-68
2022/05/04 05:36:05;;;;;;;;;;;18.70;58.70;;;;;;5026108;28;1537;-67
2022/05/04 05:38:30;;;;;;;;;;;18.70;58.70;;;;;;5043266;22;1886;-68
2022/05/04 05:40:56;;;;;;;;;;;18.70;58.70;;;;;;5051188;28;2128;-68
2022/05/04 05:43:21;;;;;;;;;;;18.70;58.60;;;;;;5059350;28;2094;-69
2022/05/04 05:45:47;;;;;;;;;;;18.70;58.50;;;;;;5087213;28;1582;-65
2022/05/04 05:48:12;;;;;;;;;;;18.70;58.50;;;;;;5059311;28;1669;-69
2022/05/04 05:50:38;;;;;;;;;;;18.70;58.50;;;;;;5074360;28;1001;-67
2022/05/04 05:53:03;;;;;;;;;;;18.70;58.40;;;;;;5073919;28;1294;-73
2022/05/04 05:55:29;;;;;;;;;;;18.70;58.40;;;;;;5070049;28;1903;-73
2022/05/04 05:57:55;;;;;;;;;;;18.70;58.30;;;;;;5062877;28;1194;-73
2022/05/04 06:00:21;;;;;;;;;;;18.70;58.40;;;;;;5070901;28;1672;-74
2022/05/04 06:02:46;;;;;;;;;;;18.70;58.30;;;;;;5075832;28;1263;-74
2022/05/04 06:05:12;;;;;;;;;;;18.70;58.20;;;;;;5075840;28;1906;-73
2022/05/04 06:07:38;;;;;;;;;;;18.70;58.20;;;;;;5074255;28;828;-71
2022/05/04 06:10:04;;;;;;;;;;;18.70;58.20;;;;;;5075492;28;826;-73
2022/05/04 06:12:30;;;;;;;;;;;18.70;58.20;;;;;;5074707;28;1287;-72
2022/05/04 06:14:55;;;;;;;;;;;18.70;58.10;;;;;;5074933;28;771;-72
2022/05/04 06:17:21;;;;;;;;;;;18.80;58.30;;;;;;5072869;28;894;-72
2022/05/04 06:19:47;;;;;;;;;;;18.70;58.10;;;;;;5074678;28;896;-71
2022/05/04 06:22:12;;;;;;;;;;;18.70;58.20;;;;;;5064700;28;1585;-71
2022/05/04 06:24:38;;;;;;;;;;;18.70;58.20;;;;;;5074607;28;1957;-72
2022/05/04 06:27:03;;;;;;;;;;;18.70;58.10;;;;;;5074428;28;827;-72
2022/05/04 06:34:57;;;;;;;;;;;18.70;58.20;;;;;;5053929;28;773;-70
2022/05/04 06:37:22;;;;;;;;;;;18.70;58.20;;;;;;5063157;28;1487;-71
2022/05/04 06:39:48;;;;;;;;;;;18.70;58.20;;;;;;5073476;28;917;-73
2022/05/04 06:42:14;;;;;;;;;;;18.70;58.10;;;;;;5073134;28;1307;-71
2022/05/04 06:44:39;;;;;;;;;;;18.70;58.10;;;;;;5073991;28;1898;-71
2022/05/04 06:47:04;;;;;;;;;;;18.70;58.10;;;;;;5072792;28;828;-71
2022/05/04 06:49:30;;;;;;;;;;;18.70;58.00;;;;;;5072368;28;1016;-73
2022/05/04 06:51:55;;;;;;;;;;;18.70;58.10;;;;;;5056118;28;1193;-71
2022/05/04 06:54:21;;;;;;;;;;;18.70;58.00;;;;;;5072293;28;2362;-72
2022/05/04 06:56:46;;;;;;;;;;;18.70;58.00;;;;;;5068211;28;2188;-76
2022/05/04 06:59:12;;;;;;;;;;;18.70;58.00;;;;;;5058360;28;1118;-69
2022/05/04 07:01:37;;;;;;;;;;;18.70;57.90;;;;;;5053982;28;1318;-71
2022/05/04 07:04:02;;;;;;;;;;;18.70;58.20;;;;;;5053950;28;1951;-74
2022/05/04 07:06:28;;;;;;;;;;;18.70;58.00;;;;;;5054273;28;968;-71
2022/05/04 07:11:25;;;;;;;;;;;18.70;57.90;;;;;;5042466;28;1651;-67
2022/05/04 07:13:50;;;;;;;;;;;18.70;58.90;;;;;;5044592;28;1302;-67
2022/05/04 07:16:16;;;;;;;;;;;18.70;60.30;;;;;;5053957;28;1182;-65
2022/05/04 07:18:42;;;;;;;;;;;18.70;60.90;;;;;;5045055;28;1212;-68
2022/05/04 07:21:07;;;;;;;;;;;18.70;62.20;;;;;;5053782;28;1275;-70
2022/05/04 07:23:33;;;;;;;;;;;18.70;61.50;;;;;;5054148;28;1909;-70
2022/05/04 07:25:58;;;;;;;;;;;18.80;62.40;;;;;;5053853;28;713;-69
2022/05/04 07:28:26;;;;;;;;;;;18.80;61.80;;;;;;5035426;28;796;-70
2022/05/04 07:30:52;;;;;;;;;;;18.80;62.00;;;;;;5047171;28;1575;-70
2022/05/04 07:33:17;;;;;;;;;;;18.80;61.80;;;;;;5052504;28;1023;-68
2022/05/04 07:35:42;;;;;;;;;;;18.80;61.80;;;;;;5041467;28;1130;-68
2022/05/04 07:38:08;;;;;;;;;;;18.80;61.90;;;;;;5051977;28;1084;-66
2022/05/04 07:43:18;;;;;;;;;;;18.80;62.00;;;;;;5052653;28;1907;-66
2022/05/04 07:45:44;;;;;;;;;;;18.80;62.00;;;;;;5051941;28;1339;-67
2022/05/04 07:48:10;;;;;;;;;;;18.80;62.20;;;;;;5051468;28;1212;-66
2022/05/04 07:50:35;;;;;;;;;;;18.80;62.10;;;;;;5051190;28;1170;-67
2022/05/04 07:53:02;;;;;;;;;;;18.80;62.20;;;;;;5051218;28;775;-67
2022/05/04 07:55:27;;;;;;;;;;;18.80;62.20;;;;;;5052213;28;894;-66
2022/05/04 07:57:52;;;;;;;;;;;18.80;62.20;;;;;;5050396;28;852;-66
2022/05/04 08:05:46;;;;;;;;;;;18.80;62.20;;;;;;5051561;28;629;-66
2022/05/04 08:08:12;;;;;;;;;;;18.80;62.30;;;;;;5050336;28;1215;-66
2022/05/04 08:10:37;;;;;;;;;;;18.80;61.80;;;;;;5051696;28;1282;-67
2022/05/04 08:13:02;;;;;;;;;;;18.80;62.00;;;;;;5048350;28;884;-67
2022/05/04 08:15:30;;;;;;;;;;;18.80;62.00;;;;;;5050851;28;961;-67
2022/05/04 08:17:57;;;;;;;;;;;18.80;61.50;;;;;;5051512;28;818;-66
2022/05/04 08:20:24;;;;;;;;;;;18.80;61.50;;;;;;5051436;28;1166;-67
2022/05/04 08:22:50;;;;;;;;;;;18.80;61.20;;;;;;5051705;28;815;-67
2022/05/04 08:25:17;;;;;;;;;;;18.80;61.20;;;;;;5051604;28;1906;-67
2022/05/04 08:27:43;;;;;;;;;;;18.80;61.70;;;;;;5049877;28;831;-65
2022/05/04 08:30:09;;;;;;;;;;;18.80;61.50;;;;;;5049507;28;1252;-65
2022/05/04 08:32:34;;;;;;;;;;;18.90;61.60;;;;;;5050698;28;846;-65
2022/05/04 08:35:00;;;;;;;;;;;18.80;61.50;;;;;;5051628;28;902;-68
2022/05/04 08:37:29;;;;;;;;;;;18.80;61.30;;;;;;5033051;28;1183;-69
2022/05/04 08:39:55;;;;;;;;;;;18.80;61.50;;;;;;5051460;28;1191;-67
2022/05/04 08:42:20;;;;;;;;;;;18.80;61.60;;;;;;5051292;28;820;-67
2022/05/04 08:44:47;;;;;;;;;;;18.90;61.60;;;;;;5049237;28;1894;-67
2022/05/04 08:47:12;;;;;;;;;;;18.80;61.40;;;;;;5049617;28;815;-67
2022/05/04 08:49:38;;;;;;;;;;;18.90;61.70;;;;;;5049895;28;1270;-67
2022/05/04 08:52:06;;;;;;;;;;;18.90;61.80;;;;;;5051140;28;1080;-67
2022/05/04 08:54:31;;;;;;;;;;;18.90;61.80;;;;;;5051148;28;799;-67
2022/05/04 08:56:57;;;;;;;;;;;18.80;61.80;;;;;;5051178;28;903;-67
2022/05/04 08:59:22;;;;;;;;;;;18.90;61.90;;;;;;5048869;28;1187;-67
2022/05/04 09:01:48;;;;;;;;;;;18.90;62.00;;;;;;5052210;28;799;-66
2022/05/04 09:04:13;;;;;;;;;;;18.90;62.00;;;;;;5054980;28;1906;-66
2022/05/04 09:06:41;;;;;;;;;;;18.90;62.10;;;;;;5055604;28;823;-66
2022/05/04 09:09:13;;;;;;;;;;;18.90;62.10;;;;;;5053931;28;1339;-67
2022/05/04 09:11:45;;;;;;;;;;;18.90;62.10;;;;;;5055460;28;842;-67
2022/05/04 09:14:11;;;;;;;;;;;18.90;62.20;;;;;;5054396;28;1161;-66
2022/05/04 09:16:37;;;;;;;;;;;18.90;62.90;;;;;;5053637;28;799;-67
2022/05/04 09:19:06;;;;;;;;;;;18.90;62.20;;;;;;5054819;28;1205;-67
2022/05/04 09:21:31;;;;;;;;;;;18.90;61.90;;;;;;5053379;28;1186;-67
2022/05/04 09:23:57;;;;;;;;;;;18.90;62.20;;;;;;5053762;28;1973;-67
2022/05/04 09:26:22;;;;;;;;;;;18.90;62.20;;;;;;5053427;28;1021;-66
2022/05/04 09:28:48;;;;;;;;;;;18.80;62.20;;;;;;5054001;28;904;-66
2022/05/04 09:31:14;;;;;;;;;;;18.90;62.30;;;;;;5054709;28;1372;-68
2022/05/04 09:33:40;;;;;;;;;;;18.90;62.40;;;;;;5047870;28;1705;-69
2022/05/04 09:36:05;;;;;;;;;;;18.90;62.40;;;;;;5053971;28;1286;-67
2022/05/04 09:46:46;;;;;;;;;;;18.90;60.60;;;;;;5054505;28;939;-68
2022/05/04 09:49:12;;;;;;;;;;;18.90;59.10;;;;;;5055072;28;1188;-68
2022/05/04 09:51:38;;;;;;;;;;;18.90;57.60;;;;;;5055186;28;796;-68
2022/05/04 09:54:13;;;;;;;;;;;18.90;57.50;;;;;;5055516;28;902;-68
2022/05/04 09:56:38;;;;;;;;;;;18.90;57.70;;;;;;5055045;28;852;-70
2022/05/04 09:59:04;;;;;;;;;;;18.90;58.20;;;;;;5054302;28;1734;-69
2022/05/04 10:01:29;;;;;;;;;;;18.90;58.70;;;;;;5053974;28;827;-69
2022/05/04 10:03:55;;;;;;;;;;;18.90;59.20;;;;;;5054042;28;1905;-69
2022/05/04 10:06:23;;;;;;;;;;;18.90;59.80;;;;;;5053677;28;874;-69
2022/05/04 10:08:48;;;;;;;;;;;18.90;59.60;;;;;;5055170;28;1127;-69
2022/05/04 10:11:14;;;;;;;;;;;18.90;59.10;;;;;;5054726;28;1214;-68
2022/05/04 10:13:39;;;;;;;;;;;18.90;58.90;;;;;;5052298;28;1115;-69
2022/05/04 10:16:08;;;;;;;;;;;18.90;58.60;;;;;;5053830;28;923;-68
2022/05/04 10:18:34;;;;;;;;;;;18.90;58.60;;;;;;5053702;28;867;-69
2022/05/04 10:21:10;;;;;;;;;;;18.90;58.70;;;;;;5053759;28;1208;-69
2022/05/04 10:23:48;;;;;;;;;;;18.90;57.90;;;;;;5053645;28;1902;-68
2022/05/04 10:26:13;;;;;;;;;;;18.90;55.40;;;;;;5053684;28;847;-69
2022/05/04 10:30:29;;;;;;;;;;;18.90;54.90;;;;;;5053526;28;966;-69
2022/05/04 10:31:28;;;;;;;;;;;18.90;55.00;;;;;;5053476;28;1202;-69
2022/05/04 10:33:56;;;;;;;;;;;18.90;54.80;;;;;;5054938;28;883;-68
2022/05/04 10:36:28;;;;;;;;;;;19.00;55.90;;;;;;5053566;28;1124;-69
2022/05/04 10:38:58;;;;;;;;;;;18.90;58.00;;;;;;5052559;28;1185;-70
2022/05/04 10:41:32;;;;;;;;;;;19.00;57.10;;;;;;5054484;28;812;-69
2022/05/04 10:43:58;;;;;;;;;;;19.00;56.70;;;;;;5054332;28;1902;-69
2022/05/04 10:46:24;;;;;;;;;;;19.00;55.20;;;;;;5054643;28;780;-69
2022/05/04 10:48:50;;;;;;;;;;;19.00;54.40;;;;;;5053746;28;863;-69
2022/05/04 10:51:19;;;;;;;;;;;19.00;54.00;;;;;;5053886;28;1302;-69
2022/05/04 10:53:45;;;;;;;;;;;19.00;53.30;;;;;;5054657;28;887;-69
2022/05/04 10:56:12;;;;;;;;;;;19.10;52.80;;;;;;5054367;28;985;-69
2022/05/04 10:58:50;;;;;;;;;;;19.10;56.60;;;;;;5053103;28;858;-69
2022/05/04 11:01:16;;;;;;;;;;;19.10;56.70;;;;;;5053949;28;1206;-69
2022/05/04 11:04:08;;;;;;;;;;;19.10;55.80;;;;;;5052655;28;1902;-69
2022/05/04 11:06:33;;;;;;;;;;;19.10;54.60;;;;;;5048547;28;2353;-68
2022/05/04 11:09:04;;;;;;;;;;;19.10;53.10;;;;;;5051537;28;2325;-70
2022/05/04 11:11:29;;;;;;;;;;;19.10;52.80;;;;;;5052925;28;1252;-69
2022/05/04 11:13:55;;;;;;;;;;;19.20;52.20;;;;;;5042294;28;1346;-69
2022/05/04 11:16:21;;;;;;;;;;;19.20;54.60;;;;;;5052761;28;898;-69
2022/05/04 11:18:46;;;;;;;;;;;19.20;55.80;;;;;;5052084;28;772;-69
2022/05/04 11:21:12;;;;;;;;;;;19.20;54.60;;;;;;5035778;28;1362;-69
2022/05/04 11:23:38;;;;;;;;;;;19.20;53.40;;;;;;5053737;28;1906;-69
2022/05/04 11:26:03;;;;;;;;;;;19.20;53.20;;;;;;5053927;28;843;-69
2022/05/04 11:28:28;;;;;;;;;;;19.20;52.40;;;;;;5052151;28;962;-68
2022/05/04 11:30:54;;;;;;;;;;;19.20;51.30;;;;;;5053454;28;1216;-69
2022/05/04 11:33:20;;;;;;;;;;;19.20;51.00;;;;;;5052799;28;855;-69
2022/05/04 11:35:55;;;;;;;;;;;19.20;50.90;;;;;;5052511;28;850;-68
2022/05/04 11:38:20;;;;;;;;;;;19.20;51.20;;;;;;5051736;28;1134;-68
2022/05/04 11:40:46;;;;;;;;;;;19.20;51.70;;;;;;5053865;28;1280;-69
2022/05/04 11:43:41;;;;;;;;;;;19.20;50.80;;;;;;5053494;28;1902;-69
2022/05/04 11:46:07;;;;;;;;;;;19.20;50.90;;;;;;5044583;28;1255;-68
2022/05/04 11:48:37;;;;;;;;;;;19.20;50.10;;;;;;5051709;28;886;-68
2022/05/04 11:51:03;;;;;;;;;;;19.20;51.60;;;;;;5051949;28;1342;-69
2022/05/04 11:53:29;;;;;;;;;;;19.10;52.20;;;;;;5052402;28;880;-70
2022/05/04 11:55:56;;;;;;;;;;;19.10;52.50;;;;;;5053172;28;843;-69
2022/05/04 11:58:23;;;;;;;;;;;19.00;52.80;;;;;;5052963;28;1073;-70
2022/05/04 12:00:49;;;;;;;;;;;19.10;52.80;;;;;;5052686;28;1203;-69
2022/05/04 12:03:14;;;;;;;;;;;19.00;53.00;;;;;;5052997;28;1898;-70
2022/05/04 12:05:40;;;;;;;;;;;19.00;53.60;;;;;;5034970;28;1591;-70
2022/05/04 12:08:06;;;;;;;;;;;19.00;53.80;;;;;;5034514;28;1111;-70
2022/05/04 12:10:31;;;;;;;;;;;19.00;54.00;;;;;;5052626;28;1207;-71
2022/05/04 12:12:58;;;;;;;;;;;19.00;54.30;;;;;;5053087;28;1012;-70
2022/05/04 12:15:26;;;;;;;;;;;18.90;54.40;;;;;;5035219;28;2202;-70
2022/05/04 12:17:56;;;;;;;;;;;18.90;54.70;;;;;;5043555;28;1807;-69
2022/05/04 12:20:21;;;;;;;;;;;18.90;54.70;;;;;;5051341;28;1248;-69
2022/05/04 12:22:47;;;;;;;;;;;18.90;55.10;;;;;;5048689;28;1240;-69
2022/05/04 12:25:13;;;;;;;;;;;18.90;55.30;;;;;;5051179;28;1977;-69
2022/05/04 12:27:38;;;;;;;;;;;18.90;55.30;;;;;;5051800;28;1158;-69
2022/05/04 12:35:32;;;;;;;;;;;18.90;55.70;;;;;;5051443;28;626;-70
2022/05/04 12:37:58;;;;;;;;;;;18.90;55.90;;;;;;5049745;28;1525;-69
2022/05/04 12:40:25;;;;;;;;;;;18.90;56.00;;;;;;5052419;28;1180;-69
2022/05/04 12:42:50;;;;;;;;;;;18.90;56.10;;;;;;5052218;28;1081;-69
2022/05/04 12:45:18;;;;;;;;;;;18.90;56.30;;;;;;5052712;28;1894;-69
2022/05/04 12:47:44;;;;;;;;;;;18.90;56.40;;;;;;5051054;28;889;-69
2022/05/04 12:50:10;;;;;;;;;;;18.90;56.40;;;;;;5051575;28;1169;-69
2022/05/04 12:52:38;;;;;;;;;;;18.90;56.60;;;;;;5052297;28;886;-69
2022/05/04 12:55:04;;;;;;;;;;;18.90;56.60;;;;;;5050876;28;1550;-69
2022/05/04 12:57:30;;;;;;;;;;;18.90;56.70;;;;;;5051553;28;831;-69
2022/05/04 12:59:55;;;;;;;;;;;18.80;56.80;;;;;;5050606;28;1217;-69
2022/05/04 13:02:21;;;;;;;;;;;18.80;56.80;;;;;;5051545;28;800;-69
2022/05/04 13:04:46;;;;;;;;;;;18.80;56.90;;;;;;5033988;28;1902;-69
2022/05/04 13:07:12;;;;;;;;;;;18.80;57.00;;;;;;5052015;28;889;-69
2022/05/04 13:09:38;;;;;;;;;;;18.80;57.00;;;;;;5068266;22;2297;-74
2022/05/04 13:12:04;;;;;;;;;;;18.80;57.10;;;;;;5046254;28;1788;-74
2022/05/04 13:14:29;;;;;;;;;;;18.80;57.20;;;;;;5049408;28;2025;-73
2022/05/04 13:16:54;;;;;;;;;;;18.80;57.30;;;;;;5050685;28;1286;-74
2022/05/04 13:19:20;;;;;;;;;;;18.80;57.30;;;;;;5034324;28;1245;-74
2022/05/04 13:21:45;;;;;;;;;;;18.80;57.40;;;;;;5035578;28;1276;-74
2022/05/04 13:24:11;;;;;;;;;;;18.80;57.40;;;;;;5063929;28;1967;-75
2022/05/04 13:26:36;;;;;;;;;;;18.80;57.50;;;;;;5050151;28;1113;-75
2022/05/04 13:29:02;;;;;;;;;;;18.80;57.60;;;;;;5052092;28;938;-74
2022/05/04 13:31:27;;;;;;;;;;;18.80;57.60;;;;;;5050388;28;1311;-74
2022/05/04 13:33:54;;;;;;;;;;;18.80;57.70;;;;;;5051032;28;819;-71
2022/05/04 13:36:20;;;;;;;;;;;18.80;57.70;;;;;;5050714;28;1308;-72
2022/05/04 13:38:45;;;;;;;;;;;18.80;57.70;;;;;;5051890;28;886;-71
2022/05/04 13:41:11;;;;;;;;;;;18.80;57.80;;;;;;5051861;28;1217;-71
2022/05/04 13:43:36;;;;;;;;;;;18.80;57.90;;;;;;5051996;28;1894;-71
2022/05/04 13:46:02;;;;;;;;;;;18.80;57.90;;;;;;5051803;28;846;-71
2022/05/04 13:48:27;;;;;;;;;;;18.80;57.90;;;;;;5051995;28;816;-71
2022/05/04 13:53:37;;;;;;;;;;;18.80;58.00;;;;;;5048997;28;1274;-71
2022/05/04 13:56:02;;;;;;;;;;;18.80;58.00;;;;;;5054169;28;1932;-73
2022/05/04 13:58:28;;;;;;;;;;;18.80;58.10;;;;;;5052002;28;1121;-72
2022/05/04 14:00:55;;;;;;;;;;;18.80;58.10;;;;;;5048774;28;1619;-72
2022/05/04 14:03:20;;;;;;;;;;;18.80;58.10;;;;;;5043921;28;1962;-68
2022/05/04 14:05:46;;;;;;;;;;;18.80;58.20;;;;;;5046202;28;1276;-73
2022/05/04 14:08:11;;;;;;;;;;;18.80;58.20;;;;;;5044481;28;1208;-73
2022/05/04 14:10:39;;;;;;;;;;;18.80;58.20;;;;;;5051828;28;1284;-74
2022/05/04 14:13:05;;;;;;;;;;;18.80;58.30;;;;;;5031997;28;1286;-72
2022/05/04 14:15:31;;;;;;;;;;;18.80;58.30;;;;;;5043862;28;1235;-70
2022/05/04 14:17:56;;;;;;;;;;;18.80;58.30;;;;;;5044377;28;1233;-72
2022/05/04 14:20:22;;;;;;;;;;;18.80;58.40;;;;;;5043795;28;1739;-75
2022/05/04 14:22:48;;;;;;;;;;;18.80;58.40;;;;;;5066728;28;1659;-75
2022/05/04 14:25:13;;;;;;;;;;;18.80;58.40;;;;;;5052663;28;1906;-74
2022/05/04 14:27:40;;;;;;;;;;;18.70;58.50;;;;;;5048065;28;1136;-75
2022/05/04 14:30:07;;;;;;;;;;;18.80;58.50;;;;;;5048257;28;1343;-71
2022/05/04 14:32:33;;;;;;;;;;;18.80;58.50;;;;;;5027447;28;1278;-74
2022/05/04 14:34:58;;;;;;;;;;;18.80;58.60;;;;;;5042411;28;1327;-74
2022/05/04 14:37:24;;;;;;;;;;;18.80;58.60;;;;;;5043222;28;1366;-74
2022/05/04 14:39:49;;;;;;;;;;;18.80;58.60;;;;;;5043286;28;1317;-74
2022/05/04 14:42:14;;;;;;;;;;;18.80;58.60;;;;;;5045614;28;1223;-73
2022/05/04 14:44:40;;;;;;;;;;;18.80;58.70;;;;;;5044223;28;1957;-74
2022/05/04 14:47:06;;;;;;;;;;;18.80;58.70;;;;;;5039931;28;1220;-72
2022/05/04 14:49:31;;;;;;;;;;;18.80;58.70;;;;;;5033622;28;1291;-72
2022/05/04 14:51:56;;;;;;;;;;;18.80;58.70;;;;;;5033699;28;800;-72
2022/05/04 14:54:22;;;;;;;;;;;18.80;58.80;;;;;;5033859;28;883;-72
2022/05/04 14:56:48;;;;;;;;;;;18.80;58.70;;;;;;5033614;28;1170;-72
2022/05/04 14:59:13;;;;;;;;;;;18.80;58.80;;;;;;5034311;28;882;-72
2022/05/04 15:01:39;;;;;;;;;;;18.80;58.80;;;;;;5033259;28;1248;-72
2022/05/04 15:06:50;;;;;;;;;;;18.70;58.80;;;;;;5033597;28;630;-72
2022/05/04 15:09:15;;;;;;;;;;;18.80;58.90;;;;;;5054396;28;1245;-72
2022/05/04 15:11:41;;;;;;;;;;;18.80;58.90;;;;;;5074052;28;1200;-72
2022/05/04 15:14:06;;;;;;;;;;;18.80;58.90;;;;;;5059508;28;1109;-72
2022/05/04 15:16:32;;;;;;;;;;;18.70;58.90;;;;;;5054244;28;757;-72